Edith Kirk — 2DST9 — position and weather

sailwx.info

Track history (hours):
 
Tides and Currents Weather Stations Pressure Air Temp Water Temp Dewpoint Dewpoint Depression Visibility Wind Speed Wind Dir Waves Ship Positions

Edith Kirk

Last reported at 2014-Sep-14 10:32 UTC. Time now 2014-Sep-19 07:55 UTC.
Position N 36°23' E 014°55'.

Length 183 m; draft 9.6 m.

Type: Tanker. MMSI: 235081745.

Date/timePositionNaut miles runAvg speedWind from/ knotsBaromVisibWave heightAir tempDewpointWater temp
2014-Sep-14 10:32N 36°23' E 014°55'1212.4
2014-Sep-14 09:33N 36°26' E 014°40'1212.3
2014-Sep-14 08:33N 36°29' E 014°25'1312.6
2014-Sep-14 07:33N 36°32' E 014°10'1313.3
2014-Sep-14 06:33N 36°35' E 013°54'1713.5
2014-Sep-14 05:18N 36°39' E 013°34'1012.9
2014-Sep-14 04:33N 36°42' E 013°22'1212.2
2014-Sep-14 03:33N 36°45' E 013°08'1212.1
2014-Sep-14 02:33N 36°48' E 012°53'1212.0
2014-Sep-14 01:33N 36°51' E 012°38'36112.0
2014-Sep-12 19:30N 37°18' E 005°07'1412.2
2014-Sep-12 18:21N 37°16' E 004°49'1212.4
2014-Sep-12 17:25N 37°15' E 004°35'1812.9
2014-Sep-12 16:04N 37°13' E 004°13'713.0
2014-Sep-12 15:33N 37°12' E 004°05'2013.5
2014-Sep-12 14:05N 37°10' E 003°40'713.6
2014-Sep-12 13:33N 37°09' E 003°31'2613.0
2014-Sep-12 11:33N 37°06' E 002°58'15813.0
2014-Sep-11 23:26N 36°39' W 000°16'2312.3
2014-Sep-11 21:33N 36°35' W 000°45'  
2014-Sep-08 21:32N 36°37' W 000°51'1313.1
2014-Sep-08 20:33N 36°39' W 000°36'2713.3
2014-Sep-08 18:33N 36°43' W 000°03'1413.4
2014-Sep-08 17:31N 36°45' E 000°14'1212.7
2014-Sep-08 16:33N 36°48' E 000°29'1212.3
2014-Sep-08 15:34N 36°50' E 000°44'1311.6
2014-Sep-08 14:26N 36°52' E 001°00'1112.8
2014-Sep-08 13:33N 36°54' E 001°14'1313.1
2014-Sep-08 12:33N 36°56' E 001°30'1312.7
2014-Sep-08 11:33N 36°58' E 001°46'1312.5
2014-Sep-08 10:33N 36°60' E 002°02'1412.5
2014-Sep-08 09:24N 37°02' E 002°20'1112.8
2014-Sep-08 08:33N 37°04' E 002°33'2612.4
2014-Sep-08 06:29N 37°07' E 003°05'1212.1
2014-Sep-08 05:32N 37°09' E 003°19'1212.3
2014-Sep-08 04:33N 37°11' E 003°34'3712.1
2014-Sep-08 01:30N 37°16' E 004°20'1512.4
2014-Sep-08 00:18N 37°18' E 004°38'912.0
2014-Sep-07 23:33N 37°21' E 004°49'2512.3
2014-Sep-07 21:33N 37°22' E 005°20'1512.7
2014-Sep-07 20:20N 37°23' E 005°40'1013.3
2014-Sep-07 19:33N 37°24' E 005°53'1313.3
2014-Sep-07 18:33N 37°25' E 006°09'1313.1
2014-Sep-07 17:33N 37°26' E 006°26'1312.9
2014-Sep-07 16:33N 37°26' E 006°42'5 4.6
2014-Sep-07 15:29N 37°28' E 006°48'1111.4
2014-Sep-07 14:31N 37°26' E 006°34'10 9.8
2014-Sep-07 13:30N 37°24' E 006°22'1010.2
2014-Sep-07 12:32N 37°24' E 006°09'1010.0
2014-Sep-07 11:30N 37°23' E 005°56'1210.3
2014-Sep-07 10:19N 37°21' E 005°41'810.8
2014-Sep-07 09:33N 37°20' E 005°31'1611.1
2014-Sep-07 08:05N 37°18' E 005°11'611.5
2014-Sep-07 07:33N 37°18' E 005°03'1313.3
2014-Sep-07 06:33N 37°16' E 004°46'1311.9
2014-Sep-07 05:26N 37°14' E 004°30'1011.3
2014-Sep-07 04:31N 37°13' E 004°17'1111.2
2014-Sep-07 03:32N 37°12' E 004°03'1111.3
2014-Sep-07 02:31N 37°11' E 003°49'3632.7
2014-Sep-07 01:25N 37°06' E 003°04'1414.9
2014-Sep-07 00:31N 37°08' E 003°21'1111.5
2014-Sep-06 23:33N 37°07' E 003°07'1211.6
2014-Sep-06 22:33N 37°05' E 002°53'1211.7
2014-Sep-06 21:32N 37°04' E 002°38'1111.1
2014-Sep-06 20:33N 37°02' E 002°25'1111.2
2014-Sep-06 19:33N 37°01' E 002°11'1511.4
2014-Sep-06 18:14N 36°59' E 001°52'810.7
2014-Sep-06 17:28N 36°57' E 001°42'13111.7
2014-Sep-06 06:18N 36°33' W 000°58'21511.9
2014-Sep-05 12:18N 36°03' W 005°22'  
Track history (hours):
 
Tides and Currents Weather Stations Pressure Air Temp Water Temp Dewpoint Dewpoint Depression Visibility Wind Speed Wind Dir Waves Ship Positions

Edith Kirk

Last reported at 2014-Sep-14 10:32 UTC. Time now 2014-Sep-19 07:55 UTC.
Position N 36°23' E 014°55'.

Length 183 m; draft 9.6 m.

Type: Tanker. MMSI: 235081745.

Date/timePositionNaut miles runAvg speedWind from/ knotsBaromVisibWave heightAir tempDewpointWater temp
2014-Sep-14 10:32N 36°23' E 014°55'1212.4
2014-Sep-14 09:33N 36°26' E 014°40'1212.3
2014-Sep-14 08:33N 36°29' E 014°25'1312.6
2014-Sep-14 07:33N 36°32' E 014°10'1313.3
2014-Sep-14 06:33N 36°35' E 013°54'1713.5
2014-Sep-14 05:18N 36°39' E 013°34'1012.9
2014-Sep-14 04:33N 36°42' E 013°22'1212.2
2014-Sep-14 03:33N 36°45' E 013°08'1212.1
2014-Sep-14 02:33N 36°48' E 012°53'1212.0
2014-Sep-14 01:33N 36°51' E 012°38'36112.0
2014-Sep-12 19:30N 37°18' E 005°07'1412.2
2014-Sep-12 18:21N 37°16' E 004°49'1212.4
2014-Sep-12 17:25N 37°15' E 004°35'1812.9
2014-Sep-12 16:04N 37°13' E 004°13'713.0
2014-Sep-12 15:33N 37°12' E 004°05'2013.5
2014-Sep-12 14:05N 37°10' E 003°40'713.6
2014-Sep-12 13:33N 37°09' E 003°31'2613.0
2014-Sep-12 11:33N 37°06' E 002°58'15813.0
2014-Sep-11 23:26N 36°39' W 000°16'2312.3
2014-Sep-11 21:33N 36°35' W 000°45'  
2014-Sep-08 21:32N 36°37' W 000°51'1313.1
2014-Sep-08 20:33N 36°39' W 000°36'2713.3
2014-Sep-08 18:33N 36°43' W 000°03'1413.4
2014-Sep-08 17:31N 36°45' E 000°14'1212.7
2014-Sep-08 16:33N 36°48' E 000°29'1212.3
2014-Sep-08 15:34N 36°50' E 000°44'1311.6
2014-Sep-08 14:26N 36°52' E 001°00'1112.8
2014-Sep-08 13:33N 36°54' E 001°14'1313.1
2014-Sep-08 12:33N 36°56' E 001°30'1312.7
2014-Sep-08 11:33N 36°58' E 001°46'1312.5
2014-Sep-08 10:33N 36°60' E 002°02'1412.5
2014-Sep-08 09:24N 37°02' E 002°20'1112.8
2014-Sep-08 08:33N 37°04' E 002°33'2612.4
2014-Sep-08 06:29N 37°07' E 003°05'1212.1
2014-Sep-08 05:32N 37°09' E 003°19'1212.3
2014-Sep-08 04:33N 37°11' E 003°34'3712.1
2014-Sep-08 01:30N 37°16' E 004°20'1512.4
2014-Sep-08 00:18N 37°18' E 004°38'912.0
2014-Sep-07 23:33N 37°21' E 004°49'2512.3
2014-Sep-07 21:33N 37°22' E 005°20'1512.7
2014-Sep-07 20:20N 37°23' E 005°40'1013.3
2014-Sep-07 19:33N 37°24' E 005°53'1313.3
2014-Sep-07 18:33N 37°25' E 006°09'1313.1
2014-Sep-07 17:33N 37°26' E 006°26'1312.9
2014-Sep-07 16:33N 37°26' E 006°42'5 4.6
2014-Sep-07 15:29N 37°28' E 006°48'1111.4
2014-Sep-07 14:31N 37°26' E 006°34'10 9.8
2014-Sep-07 13:30N 37°24' E 006°22'1010.2
2014-Sep-07 12:32N 37°24' E 006°09'1010.0
2014-Sep-07 11:30N 37°23' E 005°56'1210.3
2014-Sep-07 10:19N 37°21' E 005°41'810.8
2014-Sep-07 09:33N 37°20' E 005°31'1611.1
2014-Sep-07 08:05N 37°18' E 005°11'611.5
2014-Sep-07 07:33N 37°18' E 005°03'1313.3
2014-Sep-07 06:33N 37°16' E 004°46'1311.9
2014-Sep-07 05:26N 37°14' E 004°30'1011.3
2014-Sep-07 04:31N 37°13' E 004°17'1111.2
2014-Sep-07 03:32N 37°12' E 004°03'1111.3
2014-Sep-07 02:31N 37°11' E 003°49'3632.7
2014-Sep-07 01:25N 37°06' E 003°04'1414.9
2014-Sep-07 00:31N 37°08' E 003°21'1111.5
2014-Sep-06 23:33N 37°07' E 003°07'1211.6
2014-Sep-06 22:33N 37°05' E 002°53'1211.7
2014-Sep-06 21:32N 37°04' E 002°38'1111.1
2014-Sep-06 20:33N 37°02' E 002°25'1111.2
2014-Sep-06 19:33N 37°01' E 002°11'1511.4
2014-Sep-06 18:14N 36°59' E 001°52'810.7
2014-Sep-06 17:28N 36°57' E 001°42'13111.7
2014-Sep-06 06:18N 36°33' W 000°58'21511.9
2014-Sep-05 12:18N 36°03' W 005°22'  

Dump ship's entire track history